sensor_id;sensor_type;location;lat;lon;timestamp;pressure;altitude;pressure_sealevel;temperature;humidity
65190;BME280;51777;53.570;9.984;2022-11-14T00:00:39;101982.13;;;8.54;100.00
65190;BME280;51777;53.570;9.984;2022-11-14T00:03:06;101980.47;;;8.53;100.00
65190;BME280;51777;53.570;9.984;2022-11-14T00:05:32;101977.78;;;8.42;100.00
65190;BME280;51777;53.570;9.984;2022-11-14T00:08:02;101973.75;;;8.38;100.00
65190;BME280;51777;53.570;9.984;2022-11-14T00:10:27;101966.94;;;8.37;100.00
65190;BME280;51777;53.570;9.984;2022-11-14T00:12:53;101958.69;;;8.32;100.00
65190;BME280;51777;53.570;9.984;2022-11-14T00:15:18;101968.34;;;8.28;100.00
65190;BME280;51777;53.570;9.984;2022-11-14T00:17:43;101959.78;;;8.28;100.00
65190;BME280;51777;53.570;9.984;2022-11-14T00:20:10;101962.38;;;8.28;100.00
65190;BME280;51777;53.570;9.984;2022-11-14T00:22:36;101953.91;;;8.25;100.00
65190;BME280;51777;53.570;9.984;2022-11-14T00:25:02;101959.47;;;8.19;100.00
65190;BME280;51777;53.570;9.984;2022-11-14T00:27:28;101949.19;;;8.19;100.00
65190;BME280;51777;53.570;9.984;2022-11-14T00:29:54;101952.84;;;8.15;100.00
65190;BME280;51777;53.570;9.984;2022-11-14T00:32:19;101951.09;;;8.16;100.00
65190;BME280;51777;53.570;9.984;2022-11-14T00:34:46;101946.78;;;8.16;100.00
65190;BME280;51777;53.570;9.984;2022-11-14T00:37:12;101945.22;;;8.14;100.00
65190;BME280;51777;53.570;9.984;2022-11-14T00:39:37;101935.34;;;8.08;100.00
65190;BME280;51777;53.570;9.984;2022-11-14T00:42:03;101937.16;;;8.06;100.00
65190;BME280;51777;53.570;9.984;2022-11-14T00:44:28;101927.78;;;8.05;100.00
65190;BME280;51777;53.570;9.984;2022-11-14T00:46:53;101925.88;;;8.08;100.00
65190;BME280;51777;53.570;9.984;2022-11-14T00:49:19;101932.44;;;8.00;100.00
65190;BME280;51777;53.570;9.984;2022-11-14T00:51:44;101919.56;;;8.00;100.00
65190;BME280;51777;53.570;9.984;2022-11-14T00:54:10;101916.84;;;7.88;100.00
65190;BME280;51777;53.570;9.984;2022-11-14T00:56:35;101912.72;;;7.86;100.00
65190;BME280;51777;53.570;9.984;2022-11-14T00:59:00;101913.84;;;7.82;100.00
65190;BME280;51777;53.570;9.984;2022-11-14T01:01:26;101919.00;;;7.82;100.00
65190;BME280;51777;53.570;9.984;2022-11-14T01:03:51;101905.00;;;7.86;100.00
65190;BME280;51777;53.570;9.984;2022-11-14T01:06:17;101905.00;;;7.86;100.00
65190;BME280;51777;53.570;9.984;2022-11-14T01:08:43;101903.34;;;7.85;100.00
65190;BME280;51777;53.570;9.984;2022-11-14T01:11:12;101898.00;;;7.88;100.00
65190;BME280;51777;53.570;9.984;2022-11-14T01:13:39;101892.44;;;7.81;100.00
65190;BME280;51777;53.570;9.984;2022-11-14T01:16:04;101900.16;;;7.81;100.00
65190;BME280;51777;53.570;9.984;2022-11-14T01:18:30;101899.72;;;7.75;100.00
65190;BME280;51777;53.570;9.984;2022-11-14T01:20:56;101891.38;;;7.71;100.00
65190;BME280;51777;53.570;9.984;2022-11-14T01:23:21;101897.97;;;7.75;100.00
65190;BME280;51777;53.570;9.984;2022-11-14T01:25:46;101892.72;;;7.77;100.00
65190;BME280;51777;53.570;9.984;2022-11-14T01:28:15;101893.63;;;7.76;100.00
65190;BME280;51777;53.570;9.984;2022-11-14T01:30:41;101886.94;;;7.73;100.00
65190;BME280;51777;53.570;9.984;2022-11-14T01:33:07;101889.31;;;7.76;100.00
65190;BME280;51777;53.570;9.984;2022-11-14T01:35:34;101889.09;;;7.79;100.00
65190;BME280;51777;53.570;9.984;2022-11-14T01:38:00;101884.78;;;7.80;100.00
65190;BME280;51777;53.570;9.984;2022-11-14T01:40:26;101870.69;;;7.73;100.00
65190;BME280;51777;53.570;9.984;2022-11-14T01:51:01;101856.47;;;7.80;100.00
65190;BME280;51777;53.570;9.984;2022-11-14T01:53:27;101850.31;;;7.82;100.00
65190;BME280;51777;53.570;9.984;2022-11-14T01:55:55;101852.25;;;7.79;100.00
65190;BME280;51777;53.570;9.984;2022-11-14T01:58:22;101846.16;;;7.80;100.00
65190;BME280;51777;53.570;9.984;2022-11-14T02:00:48;101844.41;;;7.80;100.00
65190;BME280;51777;53.570;9.984;2022-11-14T02:03:14;101845.16;;;7.82;100.00
65190;BME280;51777;53.570;9.984;2022-11-14T02:05:40;101836.63;;;7.82;100.00
65190;BME280;51777;53.570;9.984;2022-11-14T02:08:10;101832.28;;;7.82;100.00
65190;BME280;51777;53.570;9.984;2022-11-14T02:10:37;101826.69;;;7.76;100.00
65190;BME280;51777;53.570;9.984;2022-11-14T02:13:03;101818.88;;;7.77;100.00
65190;BME280;51777;53.570;9.984;2022-11-14T02:15:28;101817.94;;;7.78;100.00
65190;BME280;51777;53.570;9.984;2022-11-14T02:17:54;101823.50;;;7.72;100.00
65190;BME280;51777;53.570;9.984;2022-11-14T02:20:24;101817.22;;;7.76;100.00
65190;BME280;51777;53.570;9.984;2022-11-14T02:22:52;101805.78;;;7.68;100.00
65190;BME280;51777;53.570;9.984;2022-11-14T02:25:18;101807.34;;;7.70;100.00
65190;BME280;51777;53.570;9.984;2022-11-14T02:27:44;101805.69;;;7.69;100.00
65190;BME280;51777;53.570;9.984;2022-11-14T02:30:15;101796.41;;;7.66;100.00
65190;BME280;51777;53.570;9.984;2022-11-14T02:32:41;101801.69;;;7.78;100.00
65190;BME280;51777;53.570;9.984;2022-11-14T02:35:06;101798.38;;;7.76;100.00
65190;BME280;51777;53.570;9.984;2022-11-14T02:37:32;101801.06;;;7.74;100.00
65190;BME280;51777;53.570;9.984;2022-11-14T02:39:57;101790.88;;;7.73;100.00
65190;BME280;51777;53.570;9.984;2022-11-14T02:42:23;101789.72;;;7.77;100.00
65190;BME280;51777;53.570;9.984;2022-11-14T02:44:48;101784.06;;;7.72;100.00
65190;BME280;51777;53.570;9.984;2022-11-14T02:47:14;101786.53;;;7.73;100.00
65190;BME280;51777;53.570;9.984;2022-11-14T02:49:39;101776.47;;;7.70;100.00
65190;BME280;51777;53.570;9.984;2022-11-14T02:52:04;101774.16;;;7.65;100.00
65190;BME280;51777;53.570;9.984;2022-11-14T02:54:30;101782.53;;;7.69;100.00
65190;BME280;51777;53.570;9.984;2022-11-14T02:56:55;101777.66;;;7.64;100.00
65190;BME280;51777;53.570;9.984;2022-11-14T02:59:20;101773.78;;;7.72;100.00
65190;BME280;51777;53.570;9.984;2022-11-14T03:01:46;101775.44;;;7.73;100.00
65190;BME280;51777;53.570;9.984;2022-11-14T03:04:11;101764.19;;;7.74;100.00
65190;BME280;51777;53.570;9.984;2022-11-14T03:06:39;101755.88;;;7.70;100.00
65190;BME280;51777;53.570;9.984;2022-11-14T03:09:05;101752.53;;;7.68;100.00
65190;BME280;51777;53.570;9.984;2022-11-14T03:11:30;101739.59;;;7.70;100.00
65190;BME280;51777;53.570;9.984;2022-11-14T03:13:55;101737.75;;;7.72;100.00
65190;BME280;51777;53.570;9.984;2022-11-14T03:16:21;101741.03;;;7.74;100.00
65190;BME280;51777;53.570;9.984;2022-11-14T03:18:47;101734.25;;;7.73;100.00
65190;BME280;51777;53.570;9.984;2022-11-14T03:21:18;101731.44;;;7.76;100.00
65190;BME280;51777;53.570;9.984;2022-11-14T03:23:44;101741.03;;;7.74;100.00
65190;BME280;51777;53.570;9.984;2022-11-14T03:26:11;101732.59;;;7.72;100.00
65190;BME280;51777;53.570;9.984;2022-11-14T03:28:37;101732.69;;;7.70;100.00
65190;BME280;51777;53.570;9.984;2022-11-14T03:31:03;101729.09;;;7.73;100.00
65190;BME280;51777;53.570;9.984;2022-11-14T03:33:30;101726.63;;;7.71;100.00
65190;BME280;51777;53.570;9.984;2022-11-14T03:35:55;101725.91;;;7.69;100.00
65190;BME280;51777;53.570;9.984;2022-11-14T03:38:20;101716.63;;;7.66;100.00
65190;BME280;51777;53.570;9.984;2022-11-14T03:40:48;101723.94;;;7.73;100.00
65190;BME280;51777;53.570;9.984;2022-11-14T03:43:15;101716.22;;;7.73;100.00
65190;BME280;51777;53.570;9.984;2022-11-14T03:45:40;101720.66;;;7.71;100.00
65190;BME280;51777;53.570;9.984;2022-11-14T03:48:06;101712.19;;;7.69;100.00
65190;BME280;51777;53.570;9.984;2022-11-14T03:50:31;101705.22;;;7.71;100.00
65190;BME280;51777;53.570;9.984;2022-11-14T03:52:57;101696.94;;;7.65;100.00
65190;BME280;51777;53.570;9.984;2022-11-14T03:55:22;101710.25;;;7.72;100.00
65190;BME280;51777;53.570;9.984;2022-11-14T03:57:48;101698.81;;;7.63;100.00
65190;BME280;51777;53.570;9.984;2022-11-14T04:00:14;101698.09;;;7.61;100.00
65190;BME280;51777;53.570;9.984;2022-11-14T04:02:39;101703.75;;;7.66;100.00
65190;BME280;51777;53.570;9.984;2022-11-14T04:05:05;101693.34;;;7.68;100.00
65190;BME280;51777;53.570;9.984;2022-11-14T04:07:31;101701.38;;;7.63;100.00
65190;BME280;51777;53.570;9.984;2022-11-14T04:09:56;101699.53;;;7.65;100.00
65190;BME280;51777;53.570;9.984;2022-11-14T04:12:22;101703.03;;;7.64;100.00
65190;BME280;51777;53.570;9.984;2022-11-14T04:14:47;101699.03;;;7.60;100.00
65190;BME280;51777;53.570;9.984;2022-11-14T04:17:12;101693.44;;;7.66;100.00
65190;BME280;51777;53.570;9.984;2022-11-14T04:19:38;101688.50;;;7.63;100.00
65190;BME280;51777;53.570;9.984;2022-11-14T04:22:03;101688.13;;;7.57;100.00
65190;BME280;51777;53.570;9.984;2022-11-14T04:24:28;101684.19;;;7.64;100.00
65190;BME280;51777;53.570;9.984;2022-11-14T04:26:54;101683.03;;;7.68;100.00
65190;BME280;51777;53.570;9.984;2022-11-14T04:29:20;101683.03;;;7.68;100.00
65190;BME280;51777;53.570;9.984;2022-11-14T04:31:45;101679.16;;;7.62;100.00
65190;BME280;51777;53.570;9.984;2022-11-14T04:34:10;101676.47;;;7.64;100.00
65190;BME280;51777;53.570;9.984;2022-11-14T04:36:36;101664.63;;;7.61;100.00
65190;BME280;51777;53.570;9.984;2022-11-14T04:39:01;101669.19;;;7.58;100.00
65190;BME280;51777;53.570;9.984;2022-11-14T04:41:26;101667.41;;;7.58;100.00
65190;BME280;51777;53.570;9.984;2022-11-14T04:43:52;101656.50;;;7.55;100.00
65190;BME280;51777;53.570;9.984;2022-11-14T04:46:17;101656.59;;;7.53;100.00
65190;BME280;51777;53.570;9.984;2022-11-14T04:48:43;101650.34;;;7.57;100.00
65190;BME280;51777;53.570;9.984;2022-11-14T04:51:08;101650.00;;;7.62;100.00
65190;BME280;51777;53.570;9.984;2022-11-14T04:53:33;101648.16;;;7.64;100.00
65190;BME280;51777;53.570;9.984;2022-11-14T04:55:59;101643.63;;;7.55;100.00
65190;BME280;51777;53.570;9.984;2022-11-14T04:58:24;101647.34;;;7.51;100.00
65190;BME280;51777;53.570;9.984;2022-11-14T05:00:50;101644.06;;;7.49;100.00
65190;BME280;51777;53.570;9.984;2022-11-14T05:03:15;101652.59;;;7.49;100.00
65190;BME280;51777;53.570;9.984;2022-11-14T05:05:41;101638.69;;;7.52;100.00
65190;BME280;51777;53.570;9.984;2022-11-14T05:08:06;101640.94;;;7.56;100.00
65190;BME280;51777;53.570;9.984;2022-11-14T05:10:31;101644.88;;;7.49;100.00
65190;BME280;51777;53.570;9.984;2022-11-14T05:12:57;101632.13;;;7.48;100.00
65190;BME280;51777;53.570;9.984;2022-11-14T05:15:22;101636.22;;;7.50;100.00
65190;BME280;51777;53.570;9.984;2022-11-14T05:17:48;101636.44;;;7.47;100.00
65190;BME280;51777;53.570;9.984;2022-11-14T05:20:13;101631.69;;;7.54;100.00
65190;BME280;51777;53.570;9.984;2022-11-14T05:22:39;101627.19;;;7.57;100.00
65190;BME280;51777;53.570;9.984;2022-11-14T05:25:05;101633.66;;;7.50;100.00
65190;BME280;51777;53.570;9.984;2022-11-14T05:27:30;101615.22;;;7.44;100.00
65190;BME280;51777;53.570;9.984;2022-11-14T05:29:56;101619.47;;;7.45;100.00
65190;BME280;51777;53.570;9.984;2022-11-14T05:32:21;101622.44;;;7.51;100.00
65190;BME280;51777;53.570;9.984;2022-11-14T05:34:47;101616.88;;;7.45;100.00
65190;BME280;51777;53.570;9.984;2022-11-14T05:37:12;101615.13;;;7.45;100.00
65190;BME280;51777;53.570;9.984;2022-11-14T05:39:37;101617.59;;;7.47;100.00
65190;BME280;51777;53.570;9.984;2022-11-14T05:42:03;101612.75;;;7.42;100.00
65190;BME280;51777;53.570;9.984;2022-11-14T05:44:29;101618.72;;;7.43;100.00
65190;BME280;51777;53.570;9.984;2022-11-14T05:46:54;101618.00;;;7.53;100.00
65190;BME280;51777;53.570;9.984;2022-11-14T05:49:19;101608.72;;;7.63;100.00
65190;BME280;51777;53.570;9.984;2022-11-14T05:51:45;101614.69;;;7.64;100.00
65190;BME280;51777;53.570;9.984;2022-11-14T05:54:10;101611.09;;;7.54;100.00
65190;BME280;51777;53.570;9.984;2022-11-14T05:56:35;101617.06;;;7.54;100.00
65190;BME280;51777;53.570;9.984;2022-11-14T05:59:01;101614.41;;;7.43;100.00
65190;BME280;51777;53.570;9.984;2022-11-14T06:01:26;101617.06;;;7.42;100.00
65190;BME280;51777;53.570;9.984;2022-11-14T06:03:52;101610.81;;;7.46;100.00
65190;BME280;51777;53.570;9.984;2022-11-14T06:06:19;101617.50;;;7.48;100.00
65190;BME280;51777;53.570;9.984;2022-11-14T06:08:45;101616.25;;;7.54;100.00
65190;BME280;51777;53.570;9.984;2022-11-14T06:11:13;101619.97;;;7.50;100.00
65190;BME280;51777;53.570;9.984;2022-11-14T06:13:40;101609.66;;;7.50;100.00
65190;BME280;51777;53.570;9.984;2022-11-14T06:16:12;101622.66;;;7.48;100.00
65190;BME280;51777;53.570;9.984;2022-11-14T06:18:39;101618.53;;;7.46;100.00
65190;BME280;51777;53.570;9.984;2022-11-14T06:23:31;101614.72;;;7.51;100.00
65190;BME280;51777;53.570;9.984;2022-11-14T06:26:01;101617.06;;;7.54;100.00
65190;BME280;51777;53.570;9.984;2022-11-14T06:28:27;101616.88;;;7.45;100.00
65190;BME280;51777;53.570;9.984;2022-11-14T06:31:00;101619.34;;;7.46;100.00
65190;BME280;51777;53.570;9.984;2022-11-14T06:33:26;101624.50;;;7.46;100.00
65190;BME280;51777;53.570;9.984;2022-11-14T06:36:04;101618.09;;;7.39;100.00
65190;BME280;51777;53.570;9.984;2022-11-14T06:38:30;101624.50;;;7.33;100.00
65190;BME280;51777;53.570;9.984;2022-11-14T06:41:06;101617.41;;;7.37;100.00
65190;BME280;51777;53.570;9.984;2022-11-14T06:43:33;101608.44;;;7.30;100.00
65190;BME280;51777;53.570;9.984;2022-11-14T06:45:59;101603.94;;;7.33;100.00
65190;BME280;51777;53.570;9.984;2022-11-14T06:48:24;101613.56;;;7.30;100.00
65190;BME280;51777;53.570;9.984;2022-11-14T06:51:00;101620.19;;;7.34;100.00
65190;BME280;51777;53.570;9.984;2022-11-14T06:53:27;101612.66;;;7.31;100.00
65190;BME280;51777;53.570;9.984;2022-11-14T06:55:57;101616.34;;;7.27;100.00
65190;BME280;51777;53.570;9.984;2022-11-14T06:58:27;101617.28;;;7.26;100.00
65190;BME280;51777;53.570;9.984;2022-11-14T07:00:53;101618.94;;;7.27;100.00
65190;BME280;51777;53.570;9.984;2022-11-14T07:03:19;101616.56;;;7.24;100.00
65190;BME280;51777;53.570;9.984;2022-11-14T07:05:45;101620.78;;;7.25;100.00
65190;BME280;51777;53.570;9.984;2022-11-14T07:08:11;101615.84;;;7.22;100.00
65190;BME280;51777;53.570;9.984;2022-11-14T07:10:36;101614.00;;;7.24;100.00
65190;BME280;51777;53.570;9.984;2022-11-14T07:13:02;101611.00;;;7.17;100.00
65190;BME280;51777;53.570;9.984;2022-11-14T07:15:27;101609.25;;;7.18;100.00
65190;BME280;51777;53.570;9.984;2022-11-14T07:17:52;101607.81;;;7.14;100.00
65190;BME280;51777;53.570;9.984;2022-11-14T07:20:18;101610.06;;;7.18;100.00
65190;BME280;51777;53.570;9.984;2022-11-14T07:22:46;101616.78;;;7.21;100.00
65190;BME280;51777;53.570;9.984;2022-11-14T07:25:12;101611.44;;;7.24;100.00
65190;BME280;51777;53.570;9.984;2022-11-14T07:27:38;101615.97;;;7.20;100.00
65190;BME280;51777;53.570;9.984;2022-11-14T07:30:04;101619.75;;;7.27;100.00
65190;BME280;51777;53.570;9.984;2022-11-14T07:32:30;101620.19;;;7.21;100.00
65190;BME280;51777;53.570;9.984;2022-11-14T07:34:55;101626.16;;;7.22;100.00
65190;BME280;51777;53.570;9.984;2022-11-14T07:37:21;101634.56;;;7.24;100.00
65190;BME280;51777;53.570;9.984;2022-11-14T07:39:46;101630.34;;;7.23;100.00
65190;BME280;51777;53.570;9.984;2022-11-14T07:42:11;101631.91;;;7.25;100.00
65190;BME280;51777;53.570;9.984;2022-11-14T07:44:37;101627.56;;;7.26;100.00
65190;BME280;51777;53.570;9.984;2022-11-14T07:47:02;101619.75;;;7.27;100.00
65190;BME280;51777;53.570;9.984;2022-11-14T07:49:28;101619.84;;;7.26;100.00
65190;BME280;51777;53.570;9.984;2022-11-14T07:51:53;101618.72;;;7.30;100.00
65190;BME280;51777;53.570;9.984;2022-11-14T07:54:18;101612.56;;;7.32;100.00
65190;BME280;51777;53.570;9.984;2022-11-14T07:56:44;101619.97;;;7.24;100.00
65190;BME280;51777;53.570;9.984;2022-11-14T07:59:09;101614.81;;;7.24;100.00
65190;BME280;51777;53.570;9.984;2022-11-14T08:01:34;101612.34;;;7.23;100.00
65190;BME280;51777;53.570;9.984;2022-11-14T08:04:00;101610.19;;;7.17;100.00
65190;BME280;51777;53.570;9.984;2022-11-14T08:06:25;101615.44;;;7.15;100.00
65190;BME280;51777;53.570;9.984;2022-11-14T08:08:51;101616.13;;;7.17;100.00
65190;BME280;51777;53.570;9.984;2022-11-14T08:11:16;101614.38;;;7.18;100.00
65190;BME280;51777;53.570;9.984;2022-11-14T08:14:02;101602.06;;;7.23;100.00
65190;BME280;51777;53.570;9.984;2022-11-14T08:16:27;101603.50;;;7.27;100.00
65190;BME280;51777;53.570;9.984;2022-11-14T08:18:52;101602.56;;;7.28;100.00
65190;BME280;51777;53.570;9.984;2022-11-14T08:21:18;101595.69;;;7.28;100.00
65190;BME280;51777;53.570;9.984;2022-11-14T08:23:43;101589.09;;;7.37;100.00
65190;BME280;51777;53.570;9.984;2022-11-14T08:26:10;101587.25;;;7.39;100.00
65190;BME280;51777;53.570;9.984;2022-11-14T08:28:36;101591.88;;;7.34;100.00
65190;BME280;51777;53.570;9.984;2022-11-14T08:31:03;101592.72;;;7.34;100.00
65190;BME280;51777;53.570;9.984;2022-11-14T08:33:29;101587.66;;;7.33;100.00
65190;BME280;51777;53.570;9.984;2022-11-14T08:35:54;101586.63;;;7.35;100.00
65190;BME280;51777;53.570;9.984;2022-11-14T08:38:20;101591.34;;;7.42;100.00
65190;BME280;51777;53.570;9.984;2022-11-14T08:40:45;101593.09;;;7.41;100.00
65190;BME280;51777;53.570;9.984;2022-11-14T08:45:36;101596.91;;;7.35;100.00
65190;BME280;51777;53.570;9.984;2022-11-14T08:48:02;101594.56;;;7.32;100.00
65190;BME280;51777;53.570;9.984;2022-11-14T08:50:28;101601.34;;;7.33;100.00
65190;BME280;51777;53.570;9.984;2022-11-14T08:52:53;101592.38;;;7.39;100.00
65190;BME280;51777;53.570;9.984;2022-11-14T08:55:19;101596.59;;;7.40;100.00
65190;BME280;51777;53.570;9.984;2022-11-14T08:57:45;101600.00;;;7.41;100.00
65190;BME280;51777;53.570;9.984;2022-11-14T09:00:12;101594.47;;;7.34;100.00
65190;BME280;51777;53.570;9.984;2022-11-14T09:02:37;101590.13;;;7.34;100.00
65190;BME280;51777;53.570;9.984;2022-11-14T09:05:03;101589.50;;;7.31;100.00
65190;BME280;51777;53.570;9.984;2022-11-14T09:07:29;101587.66;;;7.33;100.00
65190;BME280;51777;53.570;9.984;2022-11-14T09:09:54;101579.22;;;7.31;100.00
65190;BME280;51777;53.570;9.984;2022-11-14T09:12:19;101579.03;;;7.34;100.00
65190;BME280;51777;53.570;9.984;2022-11-14T09:14:45;101584.88;;;7.36;100.00
65190;BME280;51777;53.570;9.984;2022-11-14T09:17:10;101586.63;;;7.48;100.00
65190;BME280;51777;53.570;9.984;2022-11-14T09:19:35;101579.19;;;7.44;100.00
65190;BME280;51777;53.570;9.984;2022-11-14T09:22:01;101582.28;;;7.49;100.00
65190;BME280;51777;53.570;9.984;2022-11-14T09:24:27;101581.69;;;7.45;100.00
65190;BME280;51777;53.570;9.984;2022-11-14T09:26:52;101576.94;;;7.52;100.00
65190;BME280;51777;53.570;9.984;2022-11-14T09:29:18;101587.81;;;7.55;100.00
65190;BME280;51777;53.570;9.984;2022-11-14T09:31:43;101586.06;;;7.56;100.00
65190;BME280;51777;53.570;9.984;2022-11-14T09:34:09;101579.00;;;7.47;100.00
65190;BME280;51777;53.570;9.984;2022-11-14T09:36:34;101585.28;;;7.43;100.00
65190;BME280;51777;53.570;9.984;2022-11-14T09:39:00;101577.38;;;7.46;100.00
65190;BME280;51777;53.570;9.984;2022-11-14T09:47:18;101559.63;;;7.54;100.00
65190;BME280;51777;53.570;9.984;2022-11-14T09:49:48;101554.09;;;7.47;100.00
65190;BME280;51777;53.570;9.984;2022-11-14T09:55:52;101549.53;;;7.63;100.00
65190;BME280;51777;53.570;9.984;2022-11-14T09:58:17;101549.00;;;7.71;100.00
65190;BME280;51777;53.570;9.984;2022-11-14T10:03:46;101555.75;;;7.85;100.00
65190;BME280;51777;53.570;9.984;2022-11-14T10:06:29;101558.56;;;7.82;100.00
65190;BME280;51777;53.570;9.984;2022-11-14T10:11:36;101557.00;;;7.79;100.00
65190;BME280;51777;53.570;9.984;2022-11-14T10:14:30;101547.63;;;7.78;100.00
65190;BME280;51777;53.570;9.984;2022-11-14T10:17:38;101545.69;;;7.82;100.00
65190;BME280;51777;53.570;9.984;2022-11-14T10:20:19;101545.50;;;7.72;100.00
65190;BME280;51777;53.570;9.984;2022-11-14T10:28:37;101536.88;;;7.97;100.00
65190;BME280;51777;53.570;9.984;2022-11-14T10:33:42;101523.56;;;8.03;100.00
65190;BME280;51777;53.570;9.984;2022-11-14T10:36:31;101517.34;;;8.06;100.00
65190;BME280;51777;53.570;9.984;2022-11-14T10:41:36;101514.34;;;8.12;100.00
65190;BME280;51777;53.570;9.984;2022-11-14T10:44:03;101504.22;;;8.21;100.00
65190;BME280;51777;53.570;9.984;2022-11-14T10:46:39;101497.53;;;8.30;100.00
65190;BME280;51777;53.570;9.984;2022-11-14T10:49:18;101496.72;;;8.30;100.00
65190;BME280;51777;53.570;9.984;2022-11-14T10:51:56;101496.31;;;8.36;100.00
65190;BME280;51777;53.570;9.984;2022-11-14T10:56:57;101497.28;;;8.46;100.00
65190;BME280;51777;53.570;9.984;2022-11-14T10:59:23;101485.22;;;8.46;100.00
65190;BME280;51777;53.570;9.984;2022-11-14T11:04:33;101467.81;;;8.72;100.00
65190;BME280;51777;53.570;9.984;2022-11-14T11:09:58;101460.31;;;9.03;100.00
65190;BME280;51777;53.570;9.984;2022-11-14T11:12:48;101459.97;;;8.96;100.00
65190;BME280;51777;53.570;9.984;2022-11-14T11:15:18;101451.75;;;9.02;100.00
65190;BME280;51777;53.570;9.984;2022-11-14T11:17:59;101449.97;;;9.36;100.00
65190;BME280;51777;53.570;9.984;2022-11-14T11:25:38;101445.44;;;9.72;100.00
65190;BME280;51777;53.570;9.984;2022-11-14T11:30:35;101427.81;;;9.66;100.00
65190;BME280;51777;53.570;9.984;2022-11-14T11:35:48;101409.06;;;9.64;100.00
65190;BME280;51777;53.570;9.984;2022-11-14T11:38:15;101411.38;;;9.46;100.00
65190;BME280;51777;53.570;9.984;2022-11-14T11:40:47;101403.53;;;9.36;100.00
65190;BME280;51777;53.570;9.984;2022-11-14T11:43:53;101399.31;;;9.35;100.00
65190;BME280;51777;53.570;9.984;2022-11-14T11:49:29;101376.50;;;9.40;100.00
65190;BME280;51777;53.570;9.984;2022-11-14T11:52:04;101372.09;;;9.31;100.00
65190;BME280;51777;53.570;9.984;2022-11-14T11:54:48;101372.44;;;9.38;100.00
65190;BME280;51777;53.570;9.984;2022-11-14T11:57:17;101369.16;;;9.36;100.00
65190;BME280;51777;53.570;9.984;2022-11-14T11:59:46;101366.44;;;9.37;100.00
65190;BME280;51777;53.570;9.984;2022-11-14T12:02:27;101351.78;;;9.38;100.00
65190;BME280;51777;53.570;9.984;2022-11-14T12:04:55;101361.13;;;9.50;100.00
65190;BME280;51777;53.570;9.984;2022-11-14T12:07:42;101373.59;;;9.45;100.00
65190;BME280;51777;53.570;9.984;2022-11-14T12:10:19;101392.66;;;9.54;100.00
65190;BME280;51777;53.570;9.984;2022-11-14T12:13:10;101398.94;;;9.72;100.00
65190;BME280;51777;53.570;9.984;2022-11-14T12:16:01;101394.44;;;9.85;100.00
65190;BME280;51777;53.570;9.984;2022-11-14T12:18:38;101409.25;;;9.83;100.00
65190;BME280;51777;53.570;9.984;2022-11-14T12:29:17;101412.91;;;9.81;100.00
65190;BME280;51777;53.570;9.984;2022-11-14T12:31:45;101417.28;;;9.90;100.00
65190;BME280;51777;53.570;9.984;2022-11-14T12:34:36;101393.59;;;9.85;100.00
65190;BME280;51777;53.570;9.984;2022-11-14T12:37:19;101404.06;;;10.04;100.00
65190;BME280;51777;53.570;9.984;2022-11-14T12:40:05;101396.13;;;10.17;100.00
65190;BME280;51777;53.570;9.984;2022-11-14T12:42:31;101391.09;;;10.15;100.00
65190;BME280;51777;53.570;9.984;2022-11-14T12:44:57;101378.81;;;10.08;100.00
65190;BME280;51777;53.570;9.984;2022-11-14T12:47:25;101379.44;;;10.00;100.00
65190;BME280;51777;53.570;9.984;2022-11-14T13:00:31;101374.34;;;10.10;100.00
65190;BME280;51777;53.570;9.984;2022-11-14T13:05:56;101368.53;;;9.96;100.00
65190;BME280;51777;53.570;9.984;2022-11-14T13:11:36;101357.19;;;10.09;100.00
65190;BME280;51777;53.570;9.984;2022-11-14T13:14:24;101362.84;;;10.02;100.00
65190;BME280;51777;53.570;9.984;2022-11-14T13:19:53;101373.66;;;10.08;100.00
65190;BME280;51777;53.570;9.984;2022-11-14T13:22:43;101369.09;;;10.21;100.00
65190;BME280;51777;53.570;9.984;2022-11-14T13:25:17;101372.41;;;10.23;100.00
65190;BME280;51777;53.570;9.984;2022-11-14T13:27:43;101359.13;;;10.16;100.00
65190;BME280;51777;53.570;9.984;2022-11-14T13:30:08;101362.09;;;10.12;100.00
65190;BME280;51777;53.570;9.984;2022-11-14T13:43:58;101359.84;;;10.18;100.00
65190;BME280;51777;53.570;9.984;2022-11-14T13:52:04;101355.72;;;10.16;100.00
65190;BME280;51777;53.570;9.984;2022-11-14T13:54:30;101350.41;;;10.08;100.00
65190;BME280;51777;53.570;9.984;2022-11-14T14:17:17;101334.53;;;9.70;100.00
65190;BME280;51777;53.570;9.984;2022-11-14T14:22:48;101330.91;;;9.62;100.00
65190;BME280;51777;53.570;9.984;2022-11-14T14:28:09;101333.63;;;9.60;100.00
65190;BME280;51777;53.570;9.984;2022-11-14T14:30:35;101322.59;;;9.58;100.00
65190;BME280;51777;53.570;9.984;2022-11-14T14:35:36;101319.69;;;9.52;100.00
65190;BME280;51777;53.570;9.984;2022-11-14T14:38:09;101320.34;;;9.44;100.00
65190;BME280;51777;53.570;9.984;2022-11-14T14:40:37;101321.38;;;9.41;100.00
65190;BME280;51777;53.570;9.984;2022-11-14T14:43:05;101306.97;;;9.39;100.00
65190;BME280;51777;53.570;9.984;2022-11-14T14:45:43;101313.88;;;9.38;100.00
65190;BME280;51777;53.570;9.984;2022-11-14T14:48:15;101310.19;;;9.31;100.00
65190;BME280;51777;53.570;9.984;2022-11-14T14:50:48;101300.06;;;9.28;100.00
65190;BME280;51777;53.570;9.984;2022-11-14T14:55:58;101310.34;;;9.19;100.00
65190;BME280;51777;53.570;9.984;2022-11-14T14:58:29;101300.25;;;9.16;100.00
65190;BME280;51777;53.570;9.984;2022-11-14T15:03:25;101297.69;;;9.04;100.00
65190;BME280;51777;53.570;9.984;2022-11-14T15:05:59;101299.69;;;9.01;100.00
65190;BME280;51777;53.570;9.984;2022-11-14T15:08:26;101292.78;;;9.01;100.00
65190;BME280;51777;53.570;9.984;2022-11-14T15:10:56;101286.25;;;8.97;100.00
65190;BME280;51777;53.570;9.984;2022-11-14T15:13:22;101278.75;;;8.94;100.00